Time;durP1;ratioP1;P1;durP2;ratioP2;P2;SDS_P1;SDS_P2;PMS_P1;PMS_P2;Temp;Humidity;BMP_temperature;BMP_pressure;BME280_temperature;BME280_humidity;BME280_pressure;Samples;Min_cycle;Max_cycle;Signal;HPM_P1;HPM_P2
2023/06/05 00:01:09;;;;;;;8.45;3.40;;;;;;;13.18;66.83;102455.53;7422894;19;20022;-61
2023/06/05 00:03:36;;;;;;;8.60;3.20;;;;;;;13.06;67.13;102448.25;7422355;19;20025;-62
2023/06/05 00:06:06;;;;;;;8.70;3.47;;;;;;;13.24;66.81;102446.34;7425231;19;20023;-63
2023/06/05 00:08:33;;;;;;;8.38;3.72;;;;;;;13.03;67.33;102448.44;7424979;19;20014;-65
2023/06/05 00:11:00;;;;;;;8.98;3.58;;;;;;;13.12;66.98;102443.41;7424539;19;20018;-70
2023/06/05 00:13:27;;;;;;;9.48;3.85;;;;;;;13.05;67.37;102446.53;7422622;19;20450;-71
2023/06/05 00:15:56;;;;;;;8.15;3.50;;;;;;;12.80;68.08;102439.09;7396123;19;20095;-68
2023/06/05 00:18:23;;;;;;;9.27;3.50;;;;;;;13.06;67.31;102441.13;7396328;19;20074;-68
2023/06/05 00:20:50;;;;;;;8.73;3.78;;;;;;;12.83;67.74;102439.78;7393966;19;20669;-68
2023/06/05 00:23:17;;;;;;;9.77;3.28;;;;;;;12.81;68.07;102446.13;7393978;19;20060;-70
2023/06/05 00:25:45;;;;;;;10.57;3.97;;;;;;;12.85;68.00;102447.66;7396294;19;20014;-68
2023/06/05 00:28:12;;;;;;;7.95;3.35;;;;;;;12.82;68.14;102443.38;7395411;19;20048;-69
2023/06/05 00:30:39;;;;;;;9.38;3.88;;;;;;;12.99;67.88;102442.41;7394860;19;20042;-69
2023/06/05 00:33:06;;;;;;;9.57;3.75;;;;;;;13.06;67.43;102445.59;7393726;19;20015;-69
2023/06/05 00:35:33;;;;;;;7.63;3.42;;;;;;;13.11;67.40;102447.03;7395765;19;20018;-70
2023/06/05 00:38:01;;;;;;;10.55;3.85;;;;;;;13.17;66.96;102441.38;7395963;19;20018;-69
2023/06/05 00:40:28;;;;;;;12.68;4.13;;;;;;;13.21;66.79;102439.41;7395225;19;20104;-69
2023/06/05 00:42:55;;;;;;;8.70;3.88;;;;;;;13.23;66.62;102444.63;7393387;19;20102;-69
2023/06/05 00:45:22;;;;;;;9.90;3.92;;;;;;;13.11;67.27;102448.84;7395496;19;20023;-68
2023/06/05 00:47:50;;;;;;;12.00;3.50;;;;;;;13.08;67.36;102436.56;7394701;19;20019;-68
2023/06/05 00:50:21;;;;;;;11.13;3.80;;;;;;;13.03;67.28;102440.44;7395334;19;20377;-66
2023/06/05 00:52:50;;;;;;;10.25;4.32;;;;;;;13.04;67.09;102440.34;7393257;19;20070;-68
2023/06/05 00:55:18;;;;;;;10.65;4.18;;;;;;;12.97;67.42;102435.47;7393144;19;20022;-66
2023/06/05 00:57:45;;;;;;;8.52;3.92;;;;;;;12.77;68.30;102434.78;7394812;19;20022;-66
2023/06/05 01:00:14;;;;;;;10.82;4.15;;;;;;;12.57;69.23;102437.72;7394949;19;20029;-66
2023/06/05 01:02:42;;;;;;;10.60;4.30;;;;;;;12.40;69.84;102435.94;7390717;19;20471;-67
2023/06/05 01:05:09;;;;;;;8.18;3.70;;;;;;;12.72;68.71;102433.34;7394450;19;20078;-66
2023/06/05 01:07:40;;;;;;;10.05;4.03;;;;;;;12.84;68.22;102432.66;7390966;19;20010;-65
2023/06/05 01:10:08;;;;;;;12.48;4.13;;;;;;;12.91;67.82;102436.69;7392619;19;20035;-65
2023/06/05 01:12:46;;;;;;;8.18;3.70;;;;;;;12.89;67.84;102428.78;7390154;19;20018;-66
2023/06/05 01:15:15;;;;;;;8.90;4.03;;;;;;;12.89;67.84;102434.09;7392547;19;20035;-66
2023/06/05 01:17:47;;;;;;;8.98;4.20;;;;;;;12.91;67.67;102434.88;7392129;19;20023;-66
2023/06/05 01:20:15;;;;;;;7.93;4.10;;;;;;;12.93;67.52;102433.00;7393878;19;20018;-67
2023/06/05 01:22:46;;;;;;;7.88;4.20;;;;;;;12.90;67.66;102432.31;7392037;19;20019;-66
2023/06/05 01:25:13;;;;;;;9.48;4.13;;;;;;;12.88;67.62;102426.22;7393565;19;20022;-67
2023/06/05 01:27:48;;;;;;;8.13;4.28;;;;;;;12.82;67.91;102423.88;7391372;19;20022;-66
2023/06/05 01:30:53;;;;;;;9.02;4.38;;;;;;;12.88;67.58;102420.91;7393787;19;20046;-66
2023/06/05 01:33:30;;;;;;;8.07;4.07;;;;;;;12.81;67.91;102417.72;7388292;19;20331;-67
2023/06/05 01:36:04;;;;;;;7.90;4.25;;;;;;;12.77;68.04;102413.53;7393356;19;20497;-70
2023/06/05 01:38:36;;;;;;;9.70;4.32;;;;;;;12.82;67.77;102418.56;7393118;19;20020;-64
2023/06/05 01:41:04;;;;;;;7.65;4.28;;;;;;;12.76;68.08;102413.63;7390619;19;20019;-64
2023/06/05 01:43:32;;;;;;;9.60;4.43;;;;;;;12.86;67.77;102409.50;7390842;19;20018;-65
2023/06/05 01:46:00;;;;;;;9.25;4.72;;;;;;;12.50;68.98;102407.94;7393302;19;20014;-64
2023/06/05 01:48:29;;;;;;;10.38;4.47;;;;;;;12.26;70.05;102404.84;7392651;19;20042;-64
2023/06/05 01:50:58;;;;;;;11.48;4.40;;;;;;;12.40;69.68;102409.38;7392513;19;20039;-64
2023/06/05 01:53:29;;;;;;;11.43;4.90;;;;;;;12.57;69.04;102406.66;7391511;19;20026;-64
2023/06/05 01:55:57;;;;;;;9.23;4.63;;;;;;;12.60;68.91;102403.00;7390915;19;20078;-63
2023/06/05 01:58:24;;;;;;;8.60;4.50;;;;;;;12.61;68.74;102404.69;7392614;19;20562;-64
2023/06/05 02:00:53;;;;;;;8.50;4.18;;;;;;;12.61;68.79;102404.69;7391990;19;20027;-60
2023/06/05 02:03:20;;;;;;;8.80;4.38;;;;;;;12.64;68.53;102407.19;7390962;19;20021;-60
2023/06/05 02:05:48;;;;;;;10.38;4.68;;;;;;;12.66;68.62;102397.31;7392392;19;20034;-61
2023/06/05 02:08:19;;;;;;;10.57;4.63;;;;;;;12.64;68.38;102401.88;7392614;19;20025;-60
2023/06/05 02:10:46;;;;;;;9.98;4.68;;;;;;;12.64;68.51;102401.88;7391537;19;20018;-60
2023/06/05 02:13:18;;;;;;;10.13;4.72;;;;;;;12.47;69.39;102399.28;7390745;19;20026;-61
2023/06/05 02:15:46;;;;;;;11.27;5.13;;;;;;;12.31;69.88;102399.28;7392173;19;20035;-61
2023/06/05 02:18:14;;;;;;;10.25;4.88;;;;;;;12.44;69.46;102398.53;7390328;19;20010;-61
2023/06/05 02:20:42;;;;;;;9.45;4.70;;;;;;;12.53;69.16;102393.66;7391262;19;20014;-62
2023/06/05 02:23:09;;;;;;;10.38;4.90;;;;;;;12.47;69.22;102386.84;7390886;19;20025;-60
2023/06/05 02:25:37;;;;;;;10.95;5.38;;;;;;;12.43;69.44;102388.81;7391709;19;20022;-60
2023/06/05 02:28:04;;;;;;;9.43;4.95;;;;;;;12.27;69.64;102382.66;7392092;19;20019;-61
2023/06/05 02:30:32;;;;;;;9.30;4.93;;;;;;;12.39;69.66;102389.06;7390365;19;20459;-60
2023/06/05 02:33:00;;;;;;;8.68;4.60;;;;;;;12.49;69.19;102389.44;7389126;19;20038;-60
2023/06/05 02:35:29;;;;;;;9.32;5.03;;;;;;;12.56;68.86;102377.53;7391324;19;20034;-61
2023/06/05 02:37:57;;;;;;;10.98;5.93;;;;;;;12.49;69.25;102378.81;7391260;19;20046;-60
2023/06/05 02:40:24;;;;;;;10.93;5.90;;;;;;;12.49;68.98;102378.81;7391400;19;20025;-61
2023/06/05 02:42:52;;;;;;;10.52;5.40;;;;;;;12.47;69.31;102373.56;7389926;19;20019;-62
2023/06/05 02:45:19;;;;;;;10.43;5.53;;;;;;;12.42;69.55;102376.47;7389501;19;20048;-67
2023/06/05 02:47:48;;;;;;;10.20;5.50;;;;;;;12.46;69.44;102376.31;7391497;19;20014;-70
2023/06/05 02:50:15;;;;;;;8.60;4.80;;;;;;;12.43;69.38;102374.69;7390893;19;20034;-69
2023/06/05 02:52:42;;;;;;;10.73;5.35;;;;;;;12.39;69.44;102375.78;7389504;19;20101;-72
2023/06/05 02:55:09;;;;;;;9.38;5.30;;;;;;;12.36;69.48;102368.88;7390767;19;20070;-70
2023/06/05 02:57:41;;;;;;;8.75;5.35;;;;;;;12.37;69.49;102367.94;7390907;19;20113;-66
2023/06/05 03:00:09;;;;;;;11.25;5.20;;;;;;;12.40;69.63;102369.53;7388682;19;20018;-66
2023/06/05 03:02:37;;;;;;;9.98;5.60;;;;;;;12.27;69.88;102365.84;7389084;19;20011;-68
2023/06/05 03:05:04;;;;;;;8.38;4.80;;;;;;;12.21;70.13;102367.06;7387643;19;20019;-67
2023/06/05 03:07:33;;;;;;;9.13;5.25;;;;;;;12.29;69.98;102366.63;7390956;19;20014;-66
2023/06/05 03:10:01;;;;;;;9.73;5.40;;;;;;;12.21;70.42;102369.72;7390649;19;20015;-71
2023/06/05 03:12:28;;;;;;;9.15;5.63;;;;;;;12.23;70.11;102369.63;7388916;19;20023;-79
2023/06/05 03:14:55;;;;;;;10.80;5.32;;;;;;;12.21;70.37;102372.38;7390532;19;20137;-78
2023/06/05 03:17:24;;;;;;;10.48;5.20;;;;;;;12.22;70.21;102370.56;7387332;19;20023;-74
2023/06/05 03:19:51;;;;;;;10.65;5.30;;;;;;;12.16;70.27;102369.94;7390333;19;20022;-70
2023/06/05 03:22:18;;;;;;;12.10;5.35;;;;;;;12.24;70.03;102376.63;7388588;19;20019;-71
2023/06/05 03:24:45;;;;;;;8.88;4.88;;;;;;;12.21;70.11;102367.06;7388101;19;20039;-63
2023/06/05 03:27:12;;;;;;;11.13;5.60;;;;;;;12.23;70.06;102369.63;7390516;19;20042;-64
2023/06/05 03:29:39;;;;;;;10.20;5.53;;;;;;;12.29;70.00;102367.50;7387548;19;20485;-62
2023/06/05 03:32:07;;;;;;;9.82;5.40;;;;;;;12.30;69.96;102369.19;7387606;19;20022;-63
2023/06/05 03:34:36;;;;;;;8.70;5.35;;;;;;;12.26;69.98;102370.31;7387859;19;20022;-63
2023/06/05 03:37:03;;;;;;;11.15;5.82;;;;;;;12.21;70.51;102367.06;7387491;19;20019;-64
2023/06/05 03:39:31;;;;;;;9.90;5.43;;;;;;;12.25;70.19;102367.72;7388311;19;20011;-62
2023/06/05 03:41:58;;;;;;;9.43;5.30;;;;;;;12.31;70.04;102370.06;7385009;19;20660;-63
2023/06/05 03:44:25;;;;;;;9.88;5.10;;;;;;;12.32;70.06;102361.13;7387795;19;20166;-65
2023/06/05 03:46:52;;;;;;;10.30;5.30;;;;;;;12.34;70.14;102367.22;7390037;19;20519;-63
2023/06/05 03:49:20;;;;;;;10.43;5.45;;;;;;;12.23;70.49;102359.00;7390580;19;20088;-64
2023/06/05 03:51:48;;;;;;;9.90;5.25;;;;;;;12.29;70.82;102364.84;7395514;19;20019;-63
2023/06/05 03:54:16;;;;;;;10.30;5.40;;;;;;;12.33;70.50;102371.69;7396868;19;20038;-64
2023/06/05 03:56:49;;;;;;;8.75;4.97;;;;;;;12.39;70.42;102368.69;7396720;19;20015;-63
2023/06/05 03:59:19;;;;;;;10.38;5.70;;;;;;;12.42;70.23;102365.00;7396623;19;20042;-63
2023/06/05 04:01:46;;;;;;;9.13;5.22;;;;;;;12.46;70.11;102368.34;7395867;19;20026;-64
2023/06/05 04:04:14;;;;;;;10.18;4.90;;;;;;;12.48;70.33;102367.34;7396545;19;20038;-62
2023/06/05 04:06:41;;;;;;;9.35;5.05;;;;;;;12.46;70.43;102365.69;7394531;19;20022;-63
2023/06/05 04:09:12;;;;;;;11.70;5.53;;;;;;;12.43;70.30;102362.25;7396649;19;20110;-63
2023/06/05 04:11:44;;;;;;;10.05;5.70;;;;;;;12.46;70.39;102365.69;7393576;19;20023;-63
2023/06/05 04:14:11;;;;;;;10.13;5.30;;;;;;;12.52;70.46;102370.69;7396539;19;20064;-64
2023/06/05 04:16:42;;;;;;;9.15;5.25;;;;;;;12.53;70.38;102364.41;7396263;19;20092;-63
2023/06/05 04:19:11;;;;;;;11.43;5.82;;;;;;;12.49;70.75;102366.38;7396345;19;20495;-63
2023/06/05 04:21:40;;;;;;;10.40;5.43;;;;;;;12.57;70.70;102368.63;7394806;19;20045;-67
2023/06/05 04:24:09;;;;;;;11.15;5.43;;;;;;;12.62;70.20;102366.53;7394886;19;20050;-67
2023/06/05 04:26:38;;;;;;;11.00;5.75;;;;;;;12.63;70.33;102369.13;7395300;19;20514;-66
2023/06/05 04:29:18;;;;;;;12.30;5.50;;;;;;;12.66;70.38;102368.94;7394711;19;20025;-67
2023/06/05 04:31:50;;;;;;;9.90;5.38;;;;;;;12.67;70.44;102367.16;7394739;19;20014;-68
2023/06/05 04:34:20;;;;;;;9.63;4.85;;;;;;;12.70;70.30;102364.31;7395144;19;20019;-68
2023/06/05 04:36:49;;;;;;;10.02;5.63;;;;;;;12.73;70.16;102368.59;7395479;19;20047;-68
2023/06/05 04:39:18;;;;;;;12.02;5.72;;;;;;;12.75;70.43;102372.91;7395868;19;20015;-68
2023/06/05 04:41:46;;;;;;;10.23;5.25;;;;;;;12.77;70.14;102368.31;7394286;19;20032;-68
2023/06/05 04:44:29;;;;;;;12.90;5.80;;;;;;;12.76;70.19;102363.97;7394274;19;20026;-68
2023/06/05 04:46:56;;;;;;;9.90;5.28;;;;;;;12.82;70.01;102365.41;7393120;19;20026;-69
2023/06/05 04:49:23;;;;;;;10.23;5.22;;;;;;;12.82;70.50;102358.31;7394569;19;20011;-68
2023/06/05 04:51:53;;;;;;;11.23;5.32;;;;;;;12.76;70.29;102358.66;7393850;19;20400;-67
2023/06/05 04:54:20;;;;;;;10.93;5.82;;;;;;;12.85;70.57;102363.44;7395446;19;20039;-66
2023/06/05 04:56:49;;;;;;;9.15;5.50;;;;;;;12.91;70.43;102362.22;7394361;19;20096;-67
2023/06/05 04:59:16;;;;;;;12.27;5.95;;;;;;;13.03;69.90;102360.66;7394853;19;20065;-67
2023/06/05 05:01:44;;;;;;;10.13;5.55;;;;;;;13.03;70.11;102352.69;7393468;19;20050;-65
2023/06/05 05:04:11;;;;;;;10.63;5.75;;;;;;;13.08;69.95;102361.25;7394267;19;20019;-61
2023/06/05 05:06:40;;;;;;;8.23;5.25;;;;;;;13.05;70.21;102356.97;7394462;19;20031;-62
2023/06/05 05:09:08;;;;;;;13.10;6.13;;;;;;;13.07;70.33;102351.56;7394491;19;20018;-63
2023/06/05 05:11:36;;;;;;;9.98;5.55;;;;;;;13.04;70.51;102352.59;7393284;19;20015;-62
2023/06/05 05:14:03;;;;;;;11.07;5.85;;;;;;;13.11;70.25;102350.44;7393943;19;20045;-63
2023/06/05 05:16:30;;;;;;;12.63;5.57;;;;;;;13.18;70.13;102357.97;7394346;19;20038;-63
2023/06/05 05:18:58;;;;;;;14.48;5.90;;;;;;;13.26;69.90;102354.88;7394046;19;20052;-60
2023/06/05 05:21:25;;;;;;;9.90;5.38;;;;;;;13.30;70.16;102352.91;7393511;19;20073;-65
2023/06/05 05:23:52;;;;;;;10.32;5.85;;;;;;;13.33;69.95;102356.22;7390309;19;20019;-63
2023/06/05 05:26:20;;;;;;;10.15;5.78;;;;;;;13.28;70.17;102360.09;7390441;19;20018;-64
2023/06/05 05:28:47;;;;;;;11.60;5.68;;;;;;;13.23;69.91;102360.38;7393621;19;20028;-64
2023/06/05 05:31:14;;;;;;;9.95;5.20;;;;;;;13.24;69.91;102370.09;7393101;19;20054;-64
2023/06/05 05:33:41;;;;;;;10.35;5.60;;;;;;;13.31;69.86;102367.91;7391724;19;20019;-64
2023/06/05 05:36:08;;;;;;;11.70;5.40;;;;;;;13.31;69.93;102371.41;7393174;19;20042;-62
2023/06/05 05:38:36;;;;;;;10.50;5.38;;;;;;;13.30;70.14;102377.69;7391511;19;20010;-64
2023/06/05 05:41:03;;;;;;;10.32;5.40;;;;;;;13.38;69.91;102378.09;7392702;19;20026;-64
2023/06/05 05:43:30;;;;;;;12.48;6.20;;;;;;;13.45;70.05;102369.75;7389945;19;20014;-63
2023/06/05 05:45:57;;;;;;;13.23;6.18;;;;;;;13.46;70.31;102368.78;7392022;19;20050;-63
2023/06/05 05:48:25;;;;;;;11.20;6.05;;;;;;;13.56;69.89;102361.97;7392966;19;20035;-63
2023/06/05 05:50:52;;;;;;;9.93;5.28;;;;;;;13.60;69.77;102368.81;7392011;19;20367;-63
2023/06/05 05:53:19;;;;;;;11.95;5.53;;;;;;;13.59;69.85;102364.47;7391483;19;20030;-63
2023/06/05 05:55:47;;;;;;;10.68;5.18;;;;;;;13.64;70.06;102367.69;7393115;19;20026;-63
2023/06/05 05:58:20;;;;;;;10.35;5.55;;;;;;;13.77;69.75;102362.47;7392320;19;20018;-63
2023/06/05 06:00:47;;;;;;;13.07;6.03;;;;;;;13.76;69.59;102366.09;7391706;19;20514;-59
2023/06/05 06:03:19;;;;;;;10.68;5.20;;;;;;;13.76;69.81;102368.75;7391287;19;20509;-58
2023/06/05 06:05:46;;;;;;;11.68;5.50;;;;;;;13.78;69.78;102367.72;7391835;19;20082;-63
2023/06/05 06:08:13;;;;;;;13.32;5.65;;;;;;;13.84;69.59;102363.81;7392640;19;20019;-60
2023/06/05 06:10:41;;;;;;;10.32;5.45;;;;;;;13.78;70.15;102367.72;7391451;19;20010;-61
2023/06/05 06:13:08;;;;;;;10.48;5.63;;;;;;;13.86;70.09;102370.75;7388958;19;20090;-60
2023/06/05 06:15:38;;;;;;;9.73;5.28;;;;;;;13.93;69.74;102365.03;7392109;19;20206;-60
2023/06/05 06:18:06;;;;;;;10.48;5.18;;;;;;;13.94;69.96;102370.28;7391995;19;20035;-61
2023/06/05 06:20:34;;;;;;;9.40;5.30;;;;;;;14.00;69.72;102367.22;7391310;19;20022;-61
2023/06/05 06:23:05;;;;;;;10.05;5.50;;;;;;;14.01;69.67;102368.09;7390844;19;20085;-72
2023/06/05 06:25:32;;;;;;;11.55;5.85;;;;;;;14.09;69.51;102369.31;7390772;19;20474;-72
2023/06/05 06:28:00;;;;;;;11.13;5.70;;;;;;;14.20;69.31;102368.66;7391259;19;20025;-70
2023/06/05 06:30:28;;;;;;;11.27;5.50;;;;;;;14.20;69.38;102374.00;7391161;19;20018;-69
2023/06/05 06:32:59;;;;;;;10.93;5.32;;;;;;;14.25;69.45;102373.69;7388991;19;20031;-62
2023/06/05 06:35:27;;;;;;;8.85;4.80;;;;;;;14.27;69.51;102374.44;7392044;19;20018;-62
2023/06/05 06:37:54;;;;;;;11.65;5.13;;;;;;;14.35;69.35;102372.16;7391444;19;20034;-62
2023/06/05 06:40:22;;;;;;;10.80;5.03;;;;;;;14.35;69.30;102373.00;7391910;19;20018;-67
2023/06/05 06:42:50;;;;;;;9.15;5.20;;;;;;;14.33;69.25;102377.56;7389939;19;20022;-65
2023/06/05 06:45:17;;;;;;;9.27;4.90;;;;;;;14.41;69.25;102378.91;7390712;19;20015;-66
2023/06/05 06:47:45;;;;;;;9.82;5.07;;;;;;;14.41;69.13;102382.41;7391191;19;20022;-63
2023/06/05 06:50:32;;;;;;;12.75;5.40;;;;;;;14.44;69.08;102374.22;7390414;19;20015;-63
2023/06/05 06:52:59;;;;;;;11.20;5.53;;;;;;;14.53;69.13;102383.47;7389930;19;20022;-63
2023/06/05 06:55:27;;;;;;;10.68;5.00;;;;;;;14.65;68.92;102388.00;7388545;19;20015;-63
2023/06/05 06:57:54;;;;;;;11.27;5.57;;;;;;;14.65;68.74;102382.66;7390943;19;20018;-62
2023/06/05 07:00:23;;;;;;;12.23;5.30;;;;;;;14.69;68.63;102392.22;7388437;19;20023;-62
2023/06/05 07:02:50;;;;;;;11.40;6.00;;;;;;;14.74;68.79;102389.25;7388827;19;20019;-63
2023/06/05 07:05:19;;;;;;;13.38;5.47;;;;;;;14.81;68.69;102382.56;7388892;19;20027;-62
2023/06/05 07:07:47;;;;;;;11.40;5.18;;;;;;;14.90;68.41;102389.94;7390447;19;20022;-63
2023/06/05 07:10:14;;;;;;;10.98;5.47;;;;;;;14.91;68.42;102393.47;7389272;19;20036;-62
2023/06/05 07:12:41;;;;;;;11.73;4.95;;;;;;;14.87;68.46;102387.47;7388008;19;20043;-62
2023/06/05 07:15:09;;;;;;;10.85;5.10;;;;;;;14.92;68.36;102388.03;7389629;19;20018;-63
2023/06/05 07:17:36;;;;;;;11.45;5.25;;;;;;;14.96;68.31;102380.69;7389670;19;20071;-63
2023/06/05 07:20:05;;;;;;;13.43;5.50;;;;;;;15.09;68.13;102378.91;7387499;19;20018;-62
2023/06/05 07:22:32;;;;;;;12.48;5.07;;;;;;;15.11;67.98;102385.88;7386957;19;20028;-61
2023/06/05 07:25:00;;;;;;;11.73;4.93;;;;;;;15.15;67.83;102381.19;7391945;19;20125;-63
2023/06/05 07:27:28;;;;;;;10.20;4.63;;;;;;;15.20;67.94;102376.38;7396274;19;20014;-61
2023/06/05 07:29:55;;;;;;;10.55;4.90;;;;;;;15.28;67.83;102373.19;7395430;19;20078;-61
2023/06/05 07:32:23;;;;;;;10.00;4.60;;;;;;;15.31;67.77;102375.66;7394611;19;20046;-61
2023/06/05 07:34:51;;;;;;;9.60;4.78;;;;;;;15.35;67.65;102378.00;7397650;19;20015;-60
2023/06/05 07:37:18;;;;;;;10.02;4.90;;;;;;;15.42;67.04;102372.28;7397124;19;20010;-60
2023/06/05 07:39:47;;;;;;;10.65;4.90;;;;;;;15.53;66.83;102377.69;7397367;19;20018;-61
2023/06/05 07:42:14;;;;;;;10.48;4.60;;;;;;;15.55;66.51;102378.47;7393803;19;20018;-60
2023/06/05 07:44:42;;;;;;;10.85;5.00;;;;;;;15.51;66.64;102371.63;7396996;19;20015;-61
2023/06/05 07:47:10;;;;;;;11.27;4.88;;;;;;;15.52;66.63;102379.50;7397491;19;20030;-61
2023/06/05 07:49:37;;;;;;;9.73;4.50;;;;;;;15.58;66.79;102375.59;7395887;19;20018;-60
2023/06/05 07:52:04;;;;;;;12.45;5.53;;;;;;;15.63;66.56;102368.09;7394978;19;20105;-61
2023/06/05 07:54:31;;;;;;;10.57;4.60;;;;;;;15.66;66.54;102370.59;7396943;19;20490;-60
2023/06/05 07:56:59;;;;;;;12.13;4.90;;;;;;;15.66;66.73;102367.94;7396032;19;20018;-60
2023/06/05 07:59:27;;;;;;;10.15;5.10;;;;;;;15.75;66.70;102369.94;7396487;19;20018;-61
2023/06/05 08:01:59;;;;;;;10.00;4.32;;;;;;;15.79;66.35;102368.78;7394964;19;20035;-60
2023/06/05 08:04:27;;;;;;;10.63;4.50;;;;;;;15.91;66.00;102369.75;7396600;19;20014;-60
2023/06/05 08:06:55;;;;;;;9.75;4.25;;;;;;;15.94;65.84;102374.84;7392381;19;20023;-60
2023/06/05 08:09:22;;;;;;;8.20;4.60;;;;;;;16.00;65.30;102379.78;7395835;19;20018;-61
2023/06/05 08:11:49;;;;;;;10.77;4.43;;;;;;;16.00;65.23;102376.25;7395794;19;20014;-61
2023/06/05 08:14:17;;;;;;;11.68;5.38;;;;;;;16.02;65.40;102371.66;7393805;19;20022;-62
2023/06/05 08:16:45;;;;;;;9.32;5.13;;;;;;;16.06;65.58;102373.13;7396249;19;20848;-61
2023/06/05 08:19:12;;;;;;;9.32;4.85;;;;;;;16.11;65.49;102375.50;7393958;19;20081;-60
2023/06/05 08:21:39;;;;;;;10.25;4.35;;;;;;;16.15;65.34;102372.50;7394907;19;20043;-61
2023/06/05 08:24:07;;;;;;;12.40;4.03;;;;;;;16.19;65.05;102375.81;7394637;19;20022;-61
2023/06/05 08:26:35;;;;;;;10.82;4.80;;;;;;;16.23;64.94;102370.13;7393598;19;20011;-62
2023/06/05 08:29:02;;;;;;;7.82;4.45;;;;;;;16.29;64.78;102363.47;7395272;19;20025;-61
2023/06/05 08:31:29;;;;;;;11.05;4.75;;;;;;;16.33;64.88;102367.63;7394719;19;20018;-60
2023/06/05 08:33:57;;;;;;;8.27;4.28;;;;;;;16.42;64.28;102364.31;7392383;19;20027;-60
2023/06/05 08:36:24;;;;;;;9.73;4.50;;;;;;;16.52;63.99;102357.34;7393737;19;20038;-60
2023/06/05 08:38:51;;;;;;;8.93;4.45;;;;;;;16.54;63.97;102360.72;7394862;19;20018;-60
2023/06/05 08:41:18;;;;;;;9.48;3.97;;;;;;;16.54;64.10;102355.38;7394443;19;20029;-60
2023/06/05 08:43:45;;;;;;;10.77;4.10;;;;;;;16.64;63.55;102363.59;7392889;19;20023;-60
2023/06/05 08:46:13;;;;;;;9.40;3.85;;;;;;;16.59;62.69;102355.03;7392431;19;20035;-61
2023/06/05 08:48:43;;;;;;;9.23;4.50;;;;;;;16.68;62.65;102356.19;7394971;19;20018;-61
2023/06/05 08:51:12;;;;;;;10.00;4.00;;;;;;;16.71;62.60;102353.28;7393516;19;20029;-60
2023/06/05 08:53:42;;;;;;;8.95;3.83;;;;;;;16.73;62.74;102346.00;7391007;19;20487;-60
2023/06/05 08:56:10;;;;;;;8.30;3.70;;;;;;;16.83;62.49;102354.22;7394738;19;20046;-60
2023/06/05 08:58:39;;;;;;;10.10;4.45;;;;;;;16.89;62.23;102351.94;7394396;19;20490;-60
2023/06/05 09:01:06;;;;;;;8.77;3.47;;;;;;;16.96;61.90;102341.63;7393272;19;20019;-60
2023/06/05 09:03:33;;;;;;;12.23;4.20;;;;;;;17.00;61.34;102332.41;7390753;19;20086;-60
2023/06/05 09:06:03;;;;;;;9.20;4.40;;;;;;;16.98;61.01;102339.69;7393731;19;20169;-61
2023/06/05 09:08:32;;;;;;;9.77;4.35;;;;;;;17.07;60.76;102332.81;7394090;19;20042;-60
2023/06/05 09:11:19;;;;;;;6.60;3.70;;;;;;;17.11;60.74;102339.63;7392961;19;20363;-61
2023/06/05 09:13:46;;;;;;;8.90;3.70;;;;;;;17.08;60.75;102332.69;7390229;19;20018;-61
2023/06/05 09:16:14;;;;;;;7.28;3.67;;;;;;;17.20;61.02;102334.41;7393572;19;20018;-60
2023/06/05 09:18:53;;;;;;;9.60;4.18;;;;;;;17.21;60.86;102324.56;7392158;19;20018;-60
2023/06/05 09:21:20;;;;;;;9.23;3.95;;;;;;;17.21;60.85;102330.78;7393642;19;20039;-61
2023/06/05 09:23:47;;;;;;;8.13;3.83;;;;;;;17.24;60.50;102332.34;7392152;19;20035;-61
2023/06/05 09:26:15;;;;;;;8.07;3.60;;;;;;;17.27;60.41;102332.97;7392453;19;20015;-61
2023/06/05 09:28:54;;;;;;;10.82;4.53;;;;;;;17.34;59.95;102333.34;7393300;19;20041;-61
2023/06/05 09:31:23;;;;;;;9.25;4.35;;;;;;;17.38;60.14;102334.81;7393309;19;20375;-61
2023/06/05 09:33:58;;;;;;;10.75;3.90;;;;;;;17.49;59.86;102332.19;7391204;19;20538;-61
2023/06/05 09:36:33;;;;;;;9.20;4.35;;;;;;;17.54;59.98;102329.13;7391872;19;20018;-60
2023/06/05 09:39:18;;;;;;;10.40;4.35;;;;;;;17.66;59.11;102330.84;7393006;19;20023;-59
2023/06/05 09:41:48;;;;;;;9.98;4.43;;;;;;;17.59;59.28;102323.41;7392243;19;20325;-60
2023/06/05 09:44:16;;;;;;;7.95;4.20;;;;;;;17.57;59.61;102326.22;7392622;19;20027;-60
2023/06/05 09:47:09;;;;;;;9.52;4.03;;;;;;;17.71;59.58;102320.63;7390011;19;20398;-60
2023/06/05 09:49:39;;;;;;;8.98;4.20;;;;;;;17.69;59.56;102327.06;7390798;19;20023;-60
2023/06/05 09:52:09;;;;;;;8.93;4.22;;;;;;;17.74;59.49;102331.13;7391717;19;20043;-60
2023/06/05 09:54:38;;;;;;;9.45;3.83;;;;;;;17.75;59.13;102329.31;7392523;19;20547;-60
2023/06/05 09:57:10;;;;;;;10.00;4.05;;;;;;;17.80;59.35;102329.81;7392475;19;20025;-60
2023/06/05 09:59:55;;;;;;;12.73;4.90;;;;;;;17.94;58.66;102328.72;7391723;19;20559;-59
2023/06/05 10:02:34;;;;;;;10.02;3.78;;;;;;;17.98;58.83;102330.16;7391515;19;20026;-59
2023/06/05 10:05:07;;;;;;;8.52;3.72;;;;;;;18.06;58.93;102318.84;7391973;19;20073;-60
2023/06/05 10:07:37;;;;;;;8.77;4.40;;;;;;;18.11;58.00;102314.78;7390853;19;20027;-59
2023/06/05 10:10:05;;;;;;;8.20;4.22;;;;;;;18.10;58.47;102317.59;7392185;19;20015;-60
2023/06/05 10:12:33;;;;;;;8.63;4.50;;;;;;;18.19;58.12;102315.00;7390052;19;20522;-60
2023/06/05 10:15:01;;;;;;;9.50;4.00;;;;;;;18.22;58.02;102313.94;7396532;19;20042;-59
2023/06/05 10:17:29;;;;;;;8.57;4.00;;;;;;;18.19;57.83;102317.69;7391680;19;20014;-60
2023/06/05 10:19:58;;;;;;;8.38;4.43;;;;;;;18.19;57.91;102304.28;7390959;19;20265;-60
2023/06/05 10:22:27;;;;;;;9.82;4.20;;;;;;;18.29;57.51;102308.94;7390084;19;20037;-61
2023/06/05 10:25:02;;;;;;;8.18;3.88;;;;;;;18.36;57.05;102304.78;7391884;19;20035;-61
2023/06/05 10:27:29;;;;;;;9.90;3.35;;;;;;;18.35;57.02;102300.34;7389555;19;20022;-61
2023/06/05 10:30:14;;;;;;;7.40;3.53;;;;;;;18.50;56.43;102302.63;7390075;19;20099;-60
2023/06/05 10:32:50;;;;;;;9.90;3.83;;;;;;;18.48;56.40;102296.56;7389608;19;20022;-61
2023/06/05 10:35:21;;;;;;;9.80;3.78;;;;;;;18.51;56.48;102288.25;7391344;19;20078;-61
2023/06/05 10:37:59;;;;;;;7.60;3.30;;;;;;;18.65;56.15;102295.13;7391229;19;20042;-61
2023/06/05 10:40:26;;;;;;;9.07;4.10;;;;;;;18.63;56.51;102289.06;7390796;19;20022;-61
2023/06/05 10:42:54;;;;;;;8.48;3.78;;;;;;;18.68;56.68;102286.00;7389244;19;20020;-61
2023/06/05 10:45:31;;;;;;;8.68;3.78;;;;;;;18.73;56.44;102279.31;7389661;19;20014;-59
2023/06/05 10:47:59;;;;;;;7.95;3.90;;;;;;;18.76;56.51;102283.53;7388604;19;20018;-61
2023/06/05 10:50:28;;;;;;;11.52;4.47;;;;;;;18.84;55.68;102283.75;7389795;19;20034;-60
2023/06/05 10:52:57;;;;;;;13.02;3.70;;;;;;;18.88;55.09;102284.34;7389998;19;20026;-60
2023/06/05 10:55:26;;;;;;;7.57;3.60;;;;;;;18.93;54.39;102277.63;7391333;19;20046;-61
2023/06/05 10:58:10;;;;;;;8.88;3.80;;;;;;;18.98;54.39;102274.53;7390395;19;20020;-59
2023/06/05 11:00:38;;;;;;;7.72;3.90;;;;;;;18.97;54.91;102272.84;7389695;19;20025;-61
2023/06/05 11:03:08;;;;;;;6.32;3.58;;;;;;;19.00;55.47;102269.88;7389349;19;20015;-60
2023/06/05 11:05:36;;;;;;;10.43;3.58;;;;;;;19.09;54.96;102273.63;7388694;19;20130;-60
2023/06/05 11:08:10;;;;;;;6.65;3.15;;;;;;;19.13;54.31;102267.00;7390213;19;20014;-61
2023/06/05 11:10:37;;;;;;;8.80;3.85;;;;;;;19.14;53.99;102268.69;7389249;19;20014;-61
2023/06/05 11:13:07;;;;;;;7.53;3.47;;;;;;;19.13;53.25;102261.63;7389150;19;20043;-61
2023/06/05 11:15:36;;;;;;;7.47;3.47;;;;;;;19.19;53.10;102256.59;7387897;19;20019;-60
2023/06/05 11:18:26;;;;;;;6.57;2.92;;;;;;;19.28;52.80;102260.31;7389917;19;20015;-61
2023/06/05 11:20:53;;;;;;;7.35;2.95;;;;;;;19.18;53.00;102267.44;7388794;19;20487;-61
2023/06/05 11:23:21;;;;;;;7.60;3.38;;;;;;;19.27;52.21;102261.31;7388378;19;20373;-61
2023/06/05 11:25:50;;;;;;;6.38;2.90;;;;;;;19.32;51.92;102259.06;7387899;19;20014;-61
2023/06/05 11:28:43;;;;;;;10.15;3.03;;;;;;;19.42;51.44;102256.41;7390437;19;20424;-61
2023/06/05 11:31:11;;;;;;;9.85;3.10;;;;;;;19.41;51.46;102260.09;7388885;19;20042;-61